sensor_id;sensor_type;location;lat;lon;timestamp;P1;durP1;ratioP1;P2;durP2;ratioP2
46136;SDS011;31871;49.418;8.752;2022-11-20T00:02:17;13.85;;;5.05;;
46136;SDS011;31871;49.418;8.752;2022-11-20T00:04:43;11.68;;;4.72;;
46136;SDS011;31871;49.418;8.752;2022-11-20T00:07:08;13.25;;;5.28;;
46136;SDS011;31871;49.418;8.752;2022-11-20T00:09:34;11.68;;;5.00;;
46136;SDS011;31871;49.418;8.752;2022-11-20T00:11:59;16.05;;;5.43;;
46136;SDS011;31871;49.418;8.752;2022-11-20T00:14:25;16.90;;;6.25;;
46136;SDS011;31871;49.418;8.752;2022-11-20T00:16:50;12.13;;;4.70;;
46136;SDS011;31871;49.418;8.752;2022-11-20T00:19:16;13.77;;;5.22;;
46136;SDS011;31871;49.418;8.752;2022-11-20T00:21:41;12.18;;;5.18;;
46136;SDS011;31871;49.418;8.752;2022-11-20T00:24:08;15.25;;;5.15;;
46136;SDS011;31871;49.418;8.752;2022-11-20T00:26:34;14.77;;;4.78;;
46136;SDS011;31871;49.418;8.752;2022-11-20T00:29:00;12.23;;;4.72;;
46136;SDS011;31871;49.418;8.752;2022-11-20T00:31:26;13.20;;;4.97;;
46136;SDS011;31871;49.418;8.752;2022-11-20T00:33:53;17.33;;;5.82;;
46136;SDS011;31871;49.418;8.752;2022-11-20T00:36:22;14.05;;;5.28;;
46136;SDS011;31871;49.418;8.752;2022-11-20T00:38:53;15.63;;;5.93;;
46136;SDS011;31871;49.418;8.752;2022-11-20T00:41:20;15.43;;;5.80;;
46136;SDS011;31871;49.418;8.752;2022-11-20T00:43:46;13.95;;;5.30;;
46136;SDS011;31871;49.418;8.752;2022-11-20T00:46:13;15.63;;;5.13;;
46136;SDS011;31871;49.418;8.752;2022-11-20T00:48:41;12.55;;;4.53;;
46136;SDS011;31871;49.418;8.752;2022-11-20T00:51:07;14.90;;;5.57;;
46136;SDS011;31871;49.418;8.752;2022-11-20T00:53:33;14.57;;;4.82;;
46136;SDS011;31871;49.418;8.752;2022-11-20T00:55:59;15.90;;;4.80;;
46136;SDS011;31871;49.418;8.752;2022-11-20T00:58:29;15.63;;;5.97;;
46136;SDS011;31871;49.418;8.752;2022-11-20T01:01:03;13.88;;;5.07;;
46136;SDS011;31871;49.418;8.752;2022-11-20T01:03:30;14.48;;;5.60;;
46136;SDS011;31871;49.418;8.752;2022-11-20T01:06:06;12.30;;;4.88;;
46136;SDS011;31871;49.418;8.752;2022-11-20T01:08:35;9.70;;;4.30;;
46136;SDS011;31871;49.418;8.752;2022-11-20T01:11:01;13.60;;;5.85;;
46136;SDS011;31871;49.418;8.752;2022-11-20T01:13:30;16.77;;;6.03;;
46136;SDS011;31871;49.418;8.752;2022-11-20T01:18:35;11.77;;;5.13;;
46136;SDS011;31871;49.418;8.752;2022-11-20T01:21:03;13.57;;;5.05;;
46136;SDS011;31871;49.418;8.752;2022-11-20T01:23:34;14.73;;;5.25;;
46136;SDS011;31871;49.418;8.752;2022-11-20T01:26:12;15.27;;;5.63;;
46136;SDS011;31871;49.418;8.752;2022-11-20T01:28:40;11.60;;;5.03;;
46136;SDS011;31871;49.418;8.752;2022-11-20T01:33:40;18.08;;;6.68;;
46136;SDS011;31871;49.418;8.752;2022-11-20T01:36:07;15.23;;;5.82;;
46136;SDS011;31871;49.418;8.752;2022-11-20T01:38:33;13.20;;;5.57;;
46136;SDS011;31871;49.418;8.752;2022-11-20T01:40:59;13.57;;;6.03;;
46136;SDS011;31871;49.418;8.752;2022-11-20T01:43:25;16.45;;;6.03;;
46136;SDS011;31871;49.418;8.752;2022-11-20T01:48:36;19.05;;;6.63;;
46136;SDS011;31871;49.418;8.752;2022-11-20T01:51:30;15.95;;;6.10;;
46136;SDS011;31871;49.418;8.752;2022-11-20T01:53:54;16.77;;;5.40;;
46136;SDS011;31871;49.418;8.752;2022-11-20T01:56:23;18.23;;;6.20;;
46136;SDS011;31871;49.418;8.752;2022-11-20T01:58:51;18.17;;;6.25;;
46136;SDS011;31871;49.418;8.752;2022-11-20T02:01:21;20.30;;;6.80;;
46136;SDS011;31871;49.418;8.752;2022-11-20T02:03:48;18.73;;;7.07;;
46136;SDS011;31871;49.418;8.752;2022-11-20T02:06:25;14.32;;;6.18;;
46136;SDS011;31871;49.418;8.752;2022-11-20T02:08:54;15.50;;;6.68;;
46136;SDS011;31871;49.418;8.752;2022-11-20T02:11:20;15.73;;;6.32;;
46136;SDS011;31871;49.418;8.752;2022-11-20T02:13:46;18.13;;;7.20;;
46136;SDS011;31871;49.418;8.752;2022-11-20T02:18:45;18.25;;;6.25;;
46136;SDS011;31871;49.418;8.752;2022-11-20T02:24:04;16.17;;;6.22;;
46136;SDS011;31871;49.418;8.752;2022-11-20T02:26:35;21.50;;;6.97;;
46136;SDS011;31871;49.418;8.752;2022-11-20T02:29:06;22.42;;;7.07;;
46136;SDS011;31871;49.418;8.752;2022-11-20T02:31:39;19.27;;;6.38;;
46136;SDS011;31871;49.418;8.752;2022-11-20T02:34:07;21.48;;;7.85;;
46136;SDS011;31871;49.418;8.752;2022-11-20T02:36:33;20.38;;;6.93;;
46136;SDS011;31871;49.418;8.752;2022-11-20T02:39:00;22.33;;;7.70;;
46136;SDS011;31871;49.418;8.752;2022-11-20T02:41:33;21.30;;;7.28;;
46136;SDS011;31871;49.418;8.752;2022-11-20T02:44:00;22.27;;;8.27;;
46136;SDS011;31871;49.418;8.752;2022-11-20T02:46:26;22.75;;;7.72;;
46136;SDS011;31871;49.418;8.752;2022-11-20T02:48:52;19.73;;;6.95;;
46136;SDS011;31871;49.418;8.752;2022-11-20T02:51:18;19.10;;;7.03;;
46136;SDS011;31871;49.418;8.752;2022-11-20T02:53:43;21.35;;;6.85;;
46136;SDS011;31871;49.418;8.752;2022-11-20T02:56:09;18.15;;;7.22;;
46136;SDS011;31871;49.418;8.752;2022-11-20T02:58:35;17.88;;;6.68;;
46136;SDS011;31871;49.418;8.752;2022-11-20T03:01:00;26.10;;;8.05;;
46136;SDS011;31871;49.418;8.752;2022-11-20T03:03:26;26.13;;;7.22;;
46136;SDS011;31871;49.418;8.752;2022-11-20T03:05:51;20.50;;;6.65;;
46136;SDS011;31871;49.418;8.752;2022-11-20T03:08:17;23.85;;;8.23;;
46136;SDS011;31871;49.418;8.752;2022-11-20T03:10:42;24.55;;;7.43;;
46136;SDS011;31871;49.418;8.752;2022-11-20T03:13:08;20.77;;;7.30;;
46136;SDS011;31871;49.418;8.752;2022-11-20T03:15:35;24.35;;;7.72;;
46136;SDS011;31871;49.418;8.752;2022-11-20T03:18:01;22.25;;;7.47;;
46136;SDS011;31871;49.418;8.752;2022-11-20T03:20:27;20.73;;;7.05;;
46136;SDS011;31871;49.418;8.752;2022-11-20T03:22:53;23.05;;;7.65;;
46136;SDS011;31871;49.418;8.752;2022-11-20T03:25:19;25.55;;;7.97;;
46136;SDS011;31871;49.418;8.752;2022-11-20T03:27:44;20.73;;;6.53;;
46136;SDS011;31871;49.418;8.752;2022-11-20T03:30:10;20.23;;;7.28;;
46136;SDS011;31871;49.418;8.752;2022-11-20T03:32:36;16.30;;;6.65;;
46136;SDS011;31871;49.418;8.752;2022-11-20T03:35:01;22.45;;;7.65;;
46136;SDS011;31871;49.418;8.752;2022-11-20T03:37:27;17.70;;;6.15;;
46136;SDS011;31871;49.418;8.752;2022-11-20T03:39:53;16.52;;;6.22;;
46136;SDS011;31871;49.418;8.752;2022-11-20T03:42:18;17.35;;;6.38;;
46136;SDS011;31871;49.418;8.752;2022-11-20T03:45:03;18.00;;;6.65;;
46136;SDS011;31871;49.418;8.752;2022-11-20T03:47:29;20.17;;;7.35;;
46136;SDS011;31871;49.418;8.752;2022-11-20T03:49:55;21.95;;;6.43;;
46136;SDS011;31871;49.418;8.752;2022-11-20T03:52:20;19.02;;;7.00;;
46136;SDS011;31871;49.418;8.752;2022-11-20T03:54:46;21.25;;;7.25;;
46136;SDS011;31871;49.418;8.752;2022-11-20T03:57:11;26.48;;;7.65;;
46136;SDS011;31871;49.418;8.752;2022-11-20T03:59:37;16.50;;;6.30;;
46136;SDS011;31871;49.418;8.752;2022-11-20T04:02:02;16.00;;;5.72;;
46136;SDS011;31871;49.418;8.752;2022-11-20T04:04:28;23.08;;;6.85;;
46136;SDS011;31871;49.418;8.752;2022-11-20T04:06:53;17.17;;;6.63;;
46136;SDS011;31871;49.418;8.752;2022-11-20T04:09:19;21.70;;;6.22;;
46136;SDS011;31871;49.418;8.752;2022-11-20T04:11:44;15.35;;;5.95;;
46136;SDS011;31871;49.418;8.752;2022-11-20T04:14:14;16.90;;;5.55;;
46136;SDS011;31871;49.418;8.752;2022-11-20T04:16:40;19.30;;;6.57;;
46136;SDS011;31871;49.418;8.752;2022-11-20T04:19:09;17.75;;;6.18;;
46136;SDS011;31871;49.418;8.752;2022-11-20T04:21:36;19.02;;;6.18;;
46136;SDS011;31871;49.418;8.752;2022-11-20T04:24:02;17.70;;;6.78;;
46136;SDS011;31871;49.418;8.752;2022-11-20T04:26:28;15.25;;;5.60;;
46136;SDS011;31871;49.418;8.752;2022-11-20T04:28:55;19.73;;;6.40;;
46136;SDS011;31871;49.418;8.752;2022-11-20T04:31:22;16.38;;;5.93;;
46136;SDS011;31871;49.418;8.752;2022-11-20T04:33:49;18.88;;;6.38;;
46136;SDS011;31871;49.418;8.752;2022-11-20T04:36:15;20.13;;;6.53;;
46136;SDS011;31871;49.418;8.752;2022-11-20T04:38:42;17.05;;;6.25;;
46136;SDS011;31871;49.418;8.752;2022-11-20T04:41:15;17.02;;;6.20;;
46136;SDS011;31871;49.418;8.752;2022-11-20T04:43:46;17.65;;;5.93;;
46136;SDS011;31871;49.418;8.752;2022-11-20T04:46:13;19.75;;;6.22;;
46136;SDS011;31871;49.418;8.752;2022-11-20T04:48:39;15.15;;;5.80;;
46136;SDS011;31871;49.418;8.752;2022-11-20T04:51:05;18.90;;;6.13;;
46136;SDS011;31871;49.418;8.752;2022-11-20T04:53:30;21.35;;;6.55;;
46136;SDS011;31871;49.418;8.752;2022-11-20T04:56:06;21.98;;;6.50;;
46136;SDS011;31871;49.418;8.752;2022-11-20T04:58:33;14.43;;;6.22;;
46136;SDS011;31871;49.418;8.752;2022-11-20T05:01:32;16.90;;;5.43;;
46136;SDS011;31871;49.418;8.752;2022-11-20T05:03:51;16.23;;;6.18;;
46136;SDS011;31871;49.418;8.752;2022-11-20T05:06:18;18.33;;;6.75;;
46136;SDS011;31871;49.418;8.752;2022-11-20T05:08:45;13.80;;;5.18;;
46136;SDS011;31871;49.418;8.752;2022-11-20T05:11:14;17.23;;;5.72;;
46136;SDS011;31871;49.418;8.752;2022-11-20T05:13:42;14.30;;;4.93;;
46136;SDS011;31871;49.418;8.752;2022-11-20T05:16:12;18.42;;;5.13;;
46136;SDS011;31871;49.418;8.752;2022-11-20T05:18:39;13.30;;;5.00;;
46136;SDS011;31871;49.418;8.752;2022-11-20T05:21:05;14.25;;;5.13;;
46136;SDS011;31871;49.418;8.752;2022-11-20T05:23:32;14.27;;;5.22;;
46136;SDS011;31871;49.418;8.752;2022-11-20T05:25:59;14.80;;;4.60;;
46136;SDS011;31871;49.418;8.752;2022-11-20T05:28:25;14.82;;;5.30;;
46136;SDS011;31871;49.418;8.752;2022-11-20T05:30:52;13.07;;;4.88;;
46136;SDS011;31871;49.418;8.752;2022-11-20T05:33:17;21.40;;;5.00;;
46136;SDS011;31871;49.418;8.752;2022-11-20T05:35:43;16.42;;;5.25;;
46136;SDS011;31871;49.418;8.752;2022-11-20T05:38:09;12.93;;;5.00;;
46136;SDS011;31871;49.418;8.752;2022-11-20T05:40:35;14.98;;;4.97;;
46136;SDS011;31871;49.418;8.752;2022-11-20T05:43:01;13.35;;;5.15;;
46136;SDS011;31871;49.418;8.752;2022-11-20T05:45:27;13.98;;;5.20;;
46136;SDS011;31871;49.418;8.752;2022-11-20T05:47:53;11.30;;;5.15;;
46136;SDS011;31871;49.418;8.752;2022-11-20T05:50:22;12.13;;;4.90;;
46136;SDS011;31871;49.418;8.752;2022-11-20T05:52:47;14.30;;;4.47;;
46136;SDS011;31871;49.418;8.752;2022-11-20T05:55:13;16.73;;;5.15;;
46136;SDS011;31871;49.418;8.752;2022-11-20T05:57:38;11.55;;;4.60;;
46136;SDS011;31871;49.418;8.752;2022-11-20T06:00:04;11.13;;;4.28;;
46136;SDS011;31871;49.418;8.752;2022-11-20T06:02:30;14.15;;;5.13;;
46136;SDS011;31871;49.418;8.752;2022-11-20T06:04:55;13.85;;;4.75;;
46136;SDS011;31871;49.418;8.752;2022-11-20T06:07:21;12.35;;;4.80;;
46136;SDS011;31871;49.418;8.752;2022-11-20T06:09:46;13.93;;;5.53;;
46136;SDS011;31871;49.418;8.752;2022-11-20T06:12:12;13.07;;;5.50;;
46136;SDS011;31871;49.418;8.752;2022-11-20T06:14:37;10.27;;;4.25;;
46136;SDS011;31871;49.418;8.752;2022-11-20T06:17:03;15.80;;;5.60;;
46136;SDS011;31871;49.418;8.752;2022-11-20T06:19:29;14.00;;;4.82;;
46136;SDS011;31871;49.418;8.752;2022-11-20T06:21:54;13.88;;;5.22;;
46136;SDS011;31871;49.418;8.752;2022-11-20T06:24:20;16.92;;;4.93;;
46136;SDS011;31871;49.418;8.752;2022-11-20T06:26:45;13.40;;;4.75;;
46136;SDS011;31871;49.418;8.752;2022-11-20T06:29:11;15.45;;;4.80;;
46136;SDS011;31871;49.418;8.752;2022-11-20T06:31:36;12.52;;;4.95;;
46136;SDS011;31871;49.418;8.752;2022-11-20T06:34:03;18.38;;;5.50;;
46136;SDS011;31871;49.418;8.752;2022-11-20T06:36:30;13.77;;;5.38;;
46136;SDS011;31871;49.418;8.752;2022-11-20T06:38:56;13.98;;;4.93;;
46136;SDS011;31871;49.418;8.752;2022-11-20T06:41:22;13.85;;;4.72;;
46136;SDS011;31871;49.418;8.752;2022-11-20T06:43:47;15.57;;;5.82;;
46136;SDS011;31871;49.418;8.752;2022-11-20T06:46:13;12.70;;;4.85;;
46136;SDS011;31871;49.418;8.752;2022-11-20T06:48:42;17.55;;;5.28;;
46136;SDS011;31871;49.418;8.752;2022-11-20T06:51:08;15.43;;;5.43;;
46136;SDS011;31871;49.418;8.752;2022-11-20T06:53:34;13.23;;;4.97;;
46136;SDS011;31871;49.418;8.752;2022-11-20T06:56:00;14.18;;;4.85;;
46136;SDS011;31871;49.418;8.752;2022-11-20T06:58:26;15.90;;;5.25;;
46136;SDS011;31871;49.418;8.752;2022-11-20T07:00:53;13.93;;;5.40;;
46136;SDS011;31871;49.418;8.752;2022-11-20T07:03:19;21.35;;;6.25;;
46136;SDS011;31871;49.418;8.752;2022-11-20T07:05:44;14.05;;;5.93;;
46136;SDS011;31871;49.418;8.752;2022-11-20T07:08:11;20.58;;;5.65;;
46136;SDS011;31871;49.418;8.752;2022-11-20T07:10:37;15.82;;;6.38;;
46136;SDS011;31871;49.418;8.752;2022-11-20T07:13:03;19.27;;;6.25;;
46136;SDS011;31871;49.418;8.752;2022-11-20T07:15:29;19.27;;;7.13;;
46136;SDS011;31871;49.418;8.752;2022-11-20T07:17:55;15.77;;;6.30;;
46136;SDS011;31871;49.418;8.752;2022-11-20T07:20:23;14.45;;;5.07;;
46136;SDS011;31871;49.418;8.752;2022-11-20T07:22:53;15.30;;;5.75;;
46136;SDS011;31871;49.418;8.752;2022-11-20T07:25:22;20.77;;;6.10;;
46136;SDS011;31871;49.418;8.752;2022-11-20T07:27:48;15.55;;;5.20;;
46136;SDS011;31871;49.418;8.752;2022-11-20T07:30:14;19.38;;;7.20;;
46136;SDS011;31871;49.418;8.752;2022-11-20T07:32:40;20.40;;;7.18;;
46136;SDS011;31871;49.418;8.752;2022-11-20T07:35:06;14.98;;;5.80;;
46136;SDS011;31871;49.418;8.752;2022-11-20T07:37:34;12.70;;;5.10;;
46136;SDS011;31871;49.418;8.752;2022-11-20T07:40:00;17.20;;;6.05;;
46136;SDS011;31871;49.418;8.752;2022-11-20T07:42:26;15.32;;;5.63;;
46136;SDS011;31871;49.418;8.752;2022-11-20T07:44:51;11.27;;;5.18;;
46136;SDS011;31871;49.418;8.752;2022-11-20T07:47:17;13.52;;;5.53;;
46136;SDS011;31871;49.418;8.752;2022-11-20T07:49:42;12.75;;;5.78;;
46136;SDS011;31871;49.418;8.752;2022-11-20T07:52:08;11.63;;;4.90;;
46136;SDS011;31871;49.418;8.752;2022-11-20T07:54:33;12.65;;;4.63;;
46136;SDS011;31871;49.418;8.752;2022-11-20T07:56:59;14.52;;;4.53;;
46136;SDS011;31871;49.418;8.752;2022-11-20T07:59:24;13.27;;;4.43;;
46136;SDS011;31871;49.418;8.752;2022-11-20T08:01:50;8.90;;;4.15;;
46136;SDS011;31871;49.418;8.752;2022-11-20T08:04:15;9.98;;;4.35;;
46136;SDS011;31871;49.418;8.752;2022-11-20T08:06:41;6.53;;;3.45;;
46136;SDS011;31871;49.418;8.752;2022-11-20T08:09:07;9.10;;;4.75;;
46136;SDS011;31871;49.418;8.752;2022-11-20T08:11:32;15.65;;;4.07;;
46136;SDS011;31871;49.418;8.752;2022-11-20T08:14:16;8.10;;;3.45;;
46136;SDS011;31871;49.418;8.752;2022-11-20T08:16:43;8.10;;;3.38;;
46136;SDS011;31871;49.418;8.752;2022-11-20T08:19:10;7.03;;;2.85;;
46136;SDS011;31871;49.418;8.752;2022-11-20T08:21:37;8.75;;;3.45;;
46136;SDS011;31871;49.418;8.752;2022-11-20T08:24:03;10.75;;;3.28;;
46136;SDS011;31871;49.418;8.752;2022-11-20T08:26:28;8.13;;;3.72;;
46136;SDS011;31871;49.418;8.752;2022-11-20T08:28:57;6.95;;;3.53;;
46136;SDS011;31871;49.418;8.752;2022-11-20T08:31:24;9.38;;;3.30;;
46136;SDS011;31871;49.418;8.752;2022-11-20T08:33:50;10.52;;;4.72;;
46136;SDS011;31871;49.418;8.752;2022-11-20T08:36:16;8.88;;;3.88;;
46136;SDS011;31871;49.418;8.752;2022-11-20T08:38:46;15.27;;;4.30;;
46136;SDS011;31871;49.418;8.752;2022-11-20T08:41:16;8.30;;;3.72;;
46136;SDS011;31871;49.418;8.752;2022-11-20T08:44:00;8.10;;;3.80;;
46136;SDS011;31871;49.418;8.752;2022-11-20T08:46:33;9.00;;;3.72;;
46136;SDS011;31871;49.418;8.752;2022-11-20T08:49:04;10.23;;;4.50;;
46136;SDS011;31871;49.418;8.752;2022-11-20T08:51:31;15.63;;;4.40;;
46136;SDS011;31871;49.418;8.752;2022-11-20T08:53:56;9.27;;;4.30;;
46136;SDS011;31871;49.418;8.752;2022-11-20T08:56:22;8.15;;;3.58;;
46136;SDS011;31871;49.418;8.752;2022-11-20T08:58:49;8.25;;;3.67;;
46136;SDS011;31871;49.418;8.752;2022-11-20T09:01:16;13.57;;;4.80;;
46136;SDS011;31871;49.418;8.752;2022-11-20T09:03:41;9.60;;;4.18;;
46136;SDS011;31871;49.418;8.752;2022-11-20T09:06:07;9.02;;;3.60;;
46136;SDS011;31871;49.418;8.752;2022-11-20T09:08:33;7.45;;;3.55;;
46136;SDS011;31871;49.418;8.752;2022-11-20T09:11:00;9.82;;;3.63;;
46136;SDS011;31871;49.418;8.752;2022-11-20T09:13:26;6.55;;;3.65;;
46136;SDS011;31871;49.418;8.752;2022-11-20T09:15:59;7.32;;;3.60;;
46136;SDS011;31871;49.418;8.752;2022-11-20T09:18:27;7.07;;;3.28;;
46136;SDS011;31871;49.418;8.752;2022-11-20T09:20:57;9.43;;;3.65;;
46136;SDS011;31871;49.418;8.752;2022-11-20T09:23:23;8.52;;;3.78;;
46136;SDS011;31871;49.418;8.752;2022-11-20T09:25:49;9.68;;;4.57;;
46136;SDS011;31871;49.418;8.752;2022-11-20T09:28:15;8.43;;;4.15;;
46136;SDS011;31871;49.418;8.752;2022-11-20T09:30:41;9.07;;;4.05;;
46136;SDS011;31871;49.418;8.752;2022-11-20T09:33:06;8.57;;;3.70;;
46136;SDS011;31871;49.418;8.752;2022-11-20T09:35:32;6.35;;;3.20;;
46136;SDS011;31871;49.418;8.752;2022-11-20T09:37:58;6.82;;;3.15;;
46136;SDS011;31871;49.418;8.752;2022-11-20T09:40:28;12.68;;;4.15;;
46136;SDS011;31871;49.418;8.752;2022-11-20T09:45:54;14.63;;;5.60;;
46136;SDS011;31871;49.418;8.752;2022-11-20T09:48:48;13.88;;;5.68;;
46136;SDS011;31871;49.418;8.752;2022-11-20T09:51:39;13.98;;;6.30;;
46136;SDS011;31871;49.418;8.752;2022-11-20T09:54:17;11.00;;;5.30;;
46136;SDS011;31871;49.418;8.752;2022-11-20T09:56:50;15.48;;;5.60;;
46136;SDS011;31871;49.418;8.752;2022-11-20T09:59:38;15.05;;;5.88;;
46136;SDS011;31871;49.418;8.752;2022-11-20T10:02:15;12.23;;;6.15;;
46136;SDS011;31871;49.418;8.752;2022-11-20T10:04:44;16.08;;;6.25;;
46136;SDS011;31871;49.418;8.752;2022-11-20T10:07:17;12.07;;;5.50;;
46136;SDS011;31871;49.418;8.752;2022-11-20T10:09:52;10.38;;;4.85;;
46136;SDS011;31871;49.418;8.752;2022-11-20T10:18:02;14.25;;;5.95;;
46136;SDS011;31871;49.418;8.752;2022-11-20T10:23:39;14.85;;;7.20;;
46136;SDS011;31871;49.418;8.752;2022-11-20T10:26:16;12.77;;;5.10;;
46136;SDS011;31871;49.418;8.752;2022-11-20T10:31:32;14.05;;;6.07;;
46136;SDS011;31871;49.418;8.752;2022-11-20T10:34:07;14.90;;;6.82;;
46136;SDS011;31871;49.418;8.752;2022-11-20T10:36:56;12.23;;;5.70;;
46136;SDS011;31871;49.418;8.752;2022-11-20T10:42:25;10.63;;;5.22;;
46136;SDS011;31871;49.418;8.752;2022-11-20T10:47:49;12.43;;;6.30;;
46136;SDS011;31871;49.418;8.752;2022-11-20T10:50:29;13.85;;;5.60;;
46136;SDS011;31871;49.418;8.752;2022-11-20T10:52:59;13.32;;;5.93;;
46136;SDS011;31871;49.418;8.752;2022-11-20T10:55:55;14.80;;;5.85;;
46136;SDS011;31871;49.418;8.752;2022-11-20T10:58:29;12.52;;;5.68;;
46136;SDS011;31871;49.418;8.752;2022-11-20T11:01:04;18.23;;;7.00;;
46136;SDS011;31871;49.418;8.752;2022-11-20T11:03:31;12.95;;;6.22;;
46136;SDS011;31871;49.418;8.752;2022-11-20T11:06:03;11.90;;;5.03;;
46136;SDS011;31871;49.418;8.752;2022-11-20T11:08:42;11.90;;;5.40;;
46136;SDS011;31871;49.418;8.752;2022-11-20T11:11:20;13.68;;;5.68;;
46136;SDS011;31871;49.418;8.752;2022-11-20T11:13:47;13.23;;;5.50;;
46136;SDS011;31871;49.418;8.752;2022-11-20T11:16:23;10.45;;;4.82;;
46136;SDS011;31871;49.418;8.752;2022-11-20T11:18:50;10.45;;;4.80;;
46136;SDS011;31871;49.418;8.752;2022-11-20T11:21:23;13.48;;;5.35;;
46136;SDS011;31871;49.418;8.752;2022-11-20T11:23:59;12.30;;;5.70;;
46136;SDS011;31871;49.418;8.752;2022-11-20T11:26:29;11.70;;;5.45;;
46136;SDS011;31871;49.418;8.752;2022-11-20T11:28:59;13.68;;;5.78;;
46136;SDS011;31871;49.418;8.752;2022-11-20T11:31:28;13.90;;;6.72;;
46136;SDS011;31871;49.418;8.752;2022-11-20T11:34:08;18.73;;;7.68;;
46136;SDS011;31871;49.418;8.752;2022-11-20T11:36:38;15.55;;;5.63;;
46136;SDS011;31871;49.418;8.752;2022-11-20T11:39:05;12.95;;;5.85;;
46136;SDS011;31871;49.418;8.752;2022-11-20T11:41:37;15.93;;;5.30;;
46136;SDS011;31871;49.418;8.752;2022-11-20T11:44:16;11.77;;;4.95;;
46136;SDS011;31871;49.418;8.752;2022-11-20T11:47:03;14.90;;;5.68;;
46136;SDS011;31871;49.418;8.752;2022-11-20T11:49:29;13.48;;;5.72;;
46136;SDS011;31871;49.418;8.752;2022-11-20T11:57:16;14.10;;;6.13;;
46136;SDS011;31871;49.418;8.752;2022-11-20T12:00:02;15.65;;;6.38;;
46136;SDS011;31871;49.418;8.752;2022-11-20T12:02:34;12.07;;;5.47;;
46136;SDS011;31871;49.418;8.752;2022-11-20T12:07:47;16.33;;;6.20;;
46136;SDS011;31871;49.418;8.752;2022-11-20T12:10:20;13.88;;;6.70;;
46136;SDS011;31871;49.418;8.752;2022-11-20T12:15:47;16.40;;;6.60;;
46136;SDS011;31871;49.418;8.752;2022-11-20T12:18:22;15.85;;;6.35;;
46136;SDS011;31871;49.418;8.752;2022-11-20T12:20:59;13.88;;;5.68;;
46136;SDS011;31871;49.418;8.752;2022-11-20T12:32:13;11.98;;;5.28;;
46136;SDS011;31871;49.418;8.752;2022-11-20T12:56:43;19.75;;;5.50;;
46136;SDS011;31871;49.418;8.752;2022-11-20T13:06:58;22.42;;;5.93;;
46136;SDS011;31871;49.418;8.752;2022-11-20T13:09:25;17.60;;;6.03;;
46136;SDS011;31871;49.418;8.752;2022-11-20T13:17:18;16.98;;;6.40;;
46136;SDS011;31871;49.418;8.752;2022-11-20T13:19:57;14.48;;;5.57;;
46136;SDS011;31871;49.418;8.752;2022-11-20T13:22:28;15.88;;;6.38;;
46136;SDS011;31871;49.418;8.752;2022-11-20T13:25:08;14.88;;;6.07;;
46136;SDS011;31871;49.418;8.752;2022-11-20T13:27:34;16.17;;;4.28;;
46136;SDS011;31871;49.418;8.752;2022-11-20T13:30:14;63.30;;;18.70;;
46136;SDS011;31871;49.418;8.752;2022-11-20T13:38:09;19.52;;;7.90;;
46136;SDS011;31871;49.418;8.752;2022-11-20T13:43:48;20.88;;;6.82;;
46136;SDS011;31871;49.418;8.752;2022-11-20T13:46:13;15.57;;;4.80;;
46136;SDS011;31871;49.418;8.752;2022-11-20T13:48:43;13.68;;;4.82;;
46136;SDS011;31871;49.418;8.752;2022-11-20T13:54:04;13.95;;;5.15;;
46136;SDS011;31871;49.418;8.752;2022-11-20T13:56:54;13.98;;;6.32;;
46136;SDS011;31871;49.418;8.752;2022-11-20T14:00:30;10.63;;;2.72;;
46136;SDS011;31871;49.418;8.752;2022-11-20T14:05:24;3.38;;;1.80;;
46136;SDS011;31871;49.418;8.752;2022-11-20T14:07:50;4.63;;;1.85;;
46136;SDS011;31871;49.418;8.752;2022-11-20T14:10:27;6.90;;;2.47;;
46136;SDS011;31871;49.418;8.752;2022-11-20T14:12:54;8.93;;;2.40;;
46136;SDS011;31871;49.418;8.752;2022-11-20T14:15:32;2.92;;;1.20;;
46136;SDS011;31871;49.418;8.752;2022-11-20T14:17:59;3.45;;;0.98;;
46136;SDS011;31871;49.418;8.752;2022-11-20T14:20:36;5.78;;;1.20;;
46136;SDS011;31871;49.418;8.752;2022-11-20T14:23:02;1.80;;;1.13;;
46136;SDS011;31871;49.418;8.752;2022-11-20T14:25:30;8.18;;;1.00;;
46136;SDS011;31871;49.418;8.752;2022-11-20T14:27:57;3.78;;;0.90;;
46136;SDS011;31871;49.418;8.752;2022-11-20T14:30:25;5.88;;;1.33;;
46136;SDS011;31871;49.418;8.752;2022-11-20T14:33:11;4.55;;;1.10;;
46136;SDS011;31871;49.418;8.752;2022-11-20T14:38:13;1.63;;;0.93;;
46136;SDS011;31871;49.418;8.752;2022-11-20T14:40:41;9.57;;;1.40;;
46136;SDS011;31871;49.418;8.752;2022-11-20T14:46:13;2.13;;;0.98;;
46136;SDS011;31871;49.418;8.752;2022-11-20T14:48:44;6.53;;;1.15;;
46136;SDS011;31871;49.418;8.752;2022-11-20T14:51:35;6.75;;;1.35;;
46136;SDS011;31871;49.418;8.752;2022-11-20T14:56:34;2.33;;;0.90;;
46136;SDS011;31871;49.418;8.752;2022-11-20T14:59:00;2.75;;;1.20;;
46136;SDS011;31871;49.418;8.752;2022-11-20T15:01:26;6.25;;;0.98;;
46136;SDS011;31871;49.418;8.752;2022-11-20T15:04:14;2.47;;;1.00;;
46136;SDS011;31871;49.418;8.752;2022-11-20T15:06:48;5.72;;;1.40;;
46136;SDS011;31871;49.418;8.752;2022-11-20T15:09:15;8.60;;;1.58;;
46136;SDS011;31871;49.418;8.752;2022-11-20T15:11:49;70.05;;;14.68;;
46136;SDS011;31871;49.418;8.752;2022-11-20T15:14:21;40.88;;;10.32;;
46136;SDS011;31871;49.418;8.752;2022-11-20T15:16:48;32.22;;;8.07;;
46136;SDS011;31871;49.418;8.752;2022-11-20T15:19:21;41.63;;;12.32;;
46136;SDS011;31871;49.418;8.752;2022-11-20T15:21:49;21.40;;;4.75;;
46136;SDS011;31871;49.418;8.752;2022-11-20T15:24:15;15.10;;;4.47;;
46136;SDS011;31871;49.418;8.752;2022-11-20T15:26:41;14.40;;;4.07;;
46136;SDS011;31871;49.418;8.752;2022-11-20T15:29:08;49.03;;;14.15;;
46136;SDS011;31871;49.418;8.752;2022-11-20T15:31:36;15.70;;;4.85;;
46136;SDS011;31871;49.418;8.752;2022-11-20T15:34:02;13.48;;;4.30;;
46136;SDS011;31871;49.418;8.752;2022-11-20T15:36:30;13.18;;;3.95;;
46136;SDS011;31871;49.418;8.752;2022-11-20T15:38:55;14.18;;;3.70;;
46136;SDS011;31871;49.418;8.752;2022-11-20T15:41:21;11.82;;;3.72;;
46136;SDS011;31871;49.418;8.752;2022-11-20T15:43:46;9.45;;;4.05;;
46136;SDS011;31871;49.418;8.752;2022-11-20T15:46:15;17.65;;;4.82;;
46136;SDS011;31871;49.418;8.752;2022-11-20T15:48:44;10.25;;;2.92;;
46136;SDS011;31871;49.418;8.752;2022-11-20T15:53:59;16.95;;;4.90;;
46136;SDS011;31871;49.418;8.752;2022-11-20T15:56:26;9.70;;;3.55;;
46136;SDS011;31871;49.418;8.752;2022-11-20T15:58:52;13.70;;;4.15;;
46136;SDS011;31871;49.418;8.752;2022-11-20T16:01:18;11.70;;;4.47;;
46136;SDS011;31871;49.418;8.752;2022-11-20T16:03:46;11.77;;;4.68;;
46136;SDS011;31871;49.418;8.752;2022-11-20T16:06:12;16.92;;;6.43;;
46136;SDS011;31871;49.418;8.752;2022-11-20T16:08:37;8.95;;;4.15;;
46136;SDS011;31871;49.418;8.752;2022-11-20T16:11:03;19.25;;;6.72;;
46136;SDS011;31871;49.418;8.752;2022-11-20T16:13:30;20.02;;;5.72;;
46136;SDS011;31871;49.418;8.752;2022-11-20T16:16:22;11.05;;;4.85;;
46136;SDS011;31871;49.418;8.752;2022-11-20T16:18:50;12.00;;;4.40;;
46136;SDS011;31871;49.418;8.752;2022-11-20T16:21:16;10.48;;;4.35;;
46136;SDS011;31871;49.418;8.752;2022-11-20T16:23:42;26.92;;;7.38;;
46136;SDS011;31871;49.418;8.752;2022-11-20T16:26:17;12.18;;;4.13;;
46136;SDS011;31871;49.418;8.752;2022-11-20T16:28:43;16.10;;;8.07;;
46136;SDS011;31871;49.418;8.752;2022-11-20T16:31:10;20.55;;;7.72;;
46136;SDS011;31871;49.418;8.752;2022-11-20T16:33:36;20.02;;;7.15;;
46136;SDS011;31871;49.418;8.752;2022-11-20T16:36:09;23.20;;;9.98;;
46136;SDS011;31871;49.418;8.752;2022-11-20T16:38:35;23.80;;;9.75;;
46136;SDS011;31871;49.418;8.752;2022-11-20T16:41:01;23.27;;;9.75;;